createdAt,value
2023-03-01T00:01:27.322Z,34.77
2023-03-01T00:03:56.198Z,34.64
2023-03-01T00:06:24.971Z,34.64
2023-03-01T00:08:53.327Z,34.53
2023-03-01T00:11:23.324Z,34.88
2023-03-01T00:13:56.303Z,34.88
2023-03-01T00:16:26.261Z,34.59
2023-03-01T00:18:54.289Z,34.56
2023-03-01T00:21:22.448Z,34.76
2023-03-01T00:23:51.311Z,34.99
2023-03-01T00:26:20.256Z,34.52
2023-03-01T00:29:00.197Z,34.73
2023-03-01T00:31:31.959Z,35.00
2023-03-01T00:34:02.468Z,34.88
2023-03-01T00:36:32.782Z,34.95
2023-03-01T00:39:01.608Z,34.77
2023-03-01T00:41:29.562Z,34.78
2023-03-01T00:43:57.522Z,34.65
2023-03-01T00:46:27.109Z,34.99
2023-03-01T00:48:56.390Z,34.88
2023-03-01T00:51:27.197Z,34.77
2023-03-01T00:53:55.933Z,34.85
2023-03-01T00:56:23.807Z,34.75
2023-03-01T00:58:51.781Z,34.76
2023-03-01T01:01:22.121Z,34.70
2023-03-01T01:03:52.524Z,34.93
2023-03-01T01:06:23.752Z,35.18
2023-03-01T01:08:52.525Z,34.93
2023-03-01T01:11:21.585Z,35.01
2023-03-01T01:13:50.477Z,35.17
2023-03-01T01:16:20.629Z,35.02
2023-03-01T01:18:48.504Z,34.81
2023-03-01T01:21:23.771Z,35.05
2023-03-01T01:23:54.565Z,35.05
2023-03-01T01:26:25.670Z,34.91
2023-03-01T01:28:54.568Z,35.11
2023-03-01T01:31:24.615Z,34.91
2023-03-01T01:33:52.606Z,34.91
2023-03-01T01:36:20.724Z,35.04
2023-03-01T01:38:48.925Z,35.00
2023-03-01T01:41:19.704Z,35.02
2023-03-01T01:43:49.395Z,34.79
2023-03-01T01:46:30.697Z,35.48
2023-03-01T01:49:02.165Z,35.15
2023-03-01T01:51:39.536Z,35.28
2023-03-01T01:54:12.351Z,35.23
2023-03-01T01:56:45.605Z,35.62
2023-03-01T01:59:14.224Z,35.12
2023-03-01T02:01:42.163Z,34.92
2023-03-01T02:04:10.086Z,35.12
2023-03-01T02:06:41.911Z,35.07
2023-03-01T02:09:15.587Z,35.38
2023-03-01T02:11:46.273Z,35.46
2023-03-01T02:14:16.739Z,35.35
2023-03-01T02:16:44.992Z,35.24
2023-03-01T02:19:21.939Z,35.21
2023-03-01T02:22:00.985Z,35.71
2023-03-01T02:24:38.076Z,35.65
2023-03-01T02:27:07.570Z,35.46
2023-03-01T02:29:37.346Z,35.29
2023-03-01T02:32:06.080Z,34.99
2023-03-01T02:34:34.806Z,35.09
2023-03-01T02:37:05.516Z,35.13
2023-03-01T02:39:42.813Z,35.72
2023-03-01T02:42:14.896Z,35.43
2023-03-01T02:44:44.219Z,35.17
2023-03-01T02:47:11.999Z,35.17
2023-03-01T02:49:39.814Z,35.43
2023-03-01T02:52:25.562Z,36.04
2023-03-01T02:55:00.481Z,35.63
2023-03-01T02:57:30.985Z,35.55
2023-03-01T03:00:07.859Z,35.53
2023-03-01T03:02:39.924Z,35.37
2023-03-01T03:05:23.241Z,35.66
2023-03-01T03:07:56.687Z,35.52
2023-03-01T03:10:26.904Z,35.32
2023-03-01T03:12:57.972Z,35.48
2023-03-01T03:15:30.142Z,35.36
2023-03-01T03:18:00.093Z,35.61
2023-03-01T03:20:30.173Z,35.55
2023-03-01T03:23:00.098Z,35.75
2023-03-01T03:25:29.339Z,35.65
2023-03-01T03:27:58.977Z,35.46
2023-03-01T03:30:31.866Z,35.95
2023-03-01T03:33:01.106Z,35.53
2023-03-01T03:35:32.030Z,35.62
2023-03-01T03:38:04.148Z,35.80
2023-03-01T03:40:33.730Z,35.78
2023-03-01T03:43:01.522Z,35.51
2023-03-01T03:45:30.811Z,35.76
2023-03-01T03:47:58.601Z,35.46
2023-03-01T03:50:26.408Z,35.80
2023-03-01T03:52:54.197Z,35.56
2023-03-01T03:55:22.180Z,35.56
2023-03-01T03:57:52.411Z,35.82
2023-03-01T04:00:22.500Z,35.81
2023-03-01T04:02:57.448Z,35.92
2023-03-01T04:05:25.988Z,35.74
2023-03-01T04:08:01.968Z,35.68
2023-03-01T04:10:31.827Z,35.86
2023-03-01T04:12:59.813Z,35.99
2023-03-01T04:15:29.066Z,35.76
2023-03-01T04:17:59.960Z,35.74
2023-03-01T04:20:30.790Z,35.81
2023-03-01T04:23:11.372Z,36.21
2023-03-01T04:25:40.161Z,35.90
2023-03-01T04:28:08.518Z,35.88
2023-03-01T04:30:37.221Z,35.63
2023-03-01T04:33:08.776Z,36.09
2023-03-01T04:35:37.926Z,35.94
2023-03-01T04:38:06.208Z,35.85
2023-03-01T04:40:34.895Z,35.73
2023-03-01T04:43:03.217Z,36.02
2023-03-01T04:45:31.367Z,36.06
2023-03-01T04:47:59.524Z,35.77
2023-03-01T04:50:28.751Z,35.93
2023-03-01T04:52:59.352Z,36.08
2023-03-01T04:55:28.153Z,35.84
2023-03-01T04:57:56.588Z,36.06
2023-03-01T05:00:26.722Z,35.99
2023-03-01T05:02:56.988Z,36.27
2023-03-01T05:05:27.754Z,36.14
2023-03-01T05:07:59.467Z,36.30
2023-03-01T05:10:29.902Z,36.18
2023-03-01T05:12:58.292Z,36.22
2023-03-01T05:15:26.859Z,36.02
2023-03-01T05:17:56.092Z,36.26
2023-03-01T05:20:24.888Z,36.29
2023-03-01T05:22:54.214Z,36.63
2023-03-01T05:25:23.701Z,36.41
2023-03-01T05:27:51.442Z,36.59
2023-03-01T05:30:20.330Z,36.67
2023-03-01T05:32:56.618Z,36.91
2023-03-01T05:35:24.969Z,36.58
2023-03-01T05:37:53.611Z,36.90
2023-03-01T05:40:25.281Z,36.68
2023-03-01T05:42:55.488Z,37.21
2023-03-01T05:45:24.839Z,36.70
2023-03-01T05:47:53.216Z,37.21
2023-03-01T05:50:23.004Z,37.27
2023-03-01T05:52:53.186Z,36.99
2023-03-01T05:55:23.668Z,36.93
2023-03-01T05:57:52.102Z,37.37
2023-03-01T06:00:23.098Z,37.28
2023-03-01T06:02:52.701Z,37.17
2023-03-01T06:05:20.685Z,37.27
2023-03-01T06:07:48.719Z,37.44
2023-03-01T06:10:16.803Z,37.35
2023-03-01T06:12:46.392Z,37.27
2023-03-01T06:15:16.854Z,37.61
2023-03-01T06:17:46.879Z,37.43
2023-03-01T06:20:17.142Z,37.39
2023-03-01T06:22:45.794Z,37.26
2023-03-01T06:25:15.441Z,37.07
2023-03-01T06:27:44.012Z,37.26
2023-03-01T06:30:15.914Z,37.42
2023-03-01T06:32:43.860Z,37.38
2023-03-01T06:35:12.752Z,37.48
2023-03-01T06:37:41.965Z,37.28
2023-03-01T06:40:12.709Z,37.25
2023-03-01T06:42:41.959Z,37.48
2023-03-01T06:45:11.657Z,37.38
2023-03-01T06:47:40.850Z,37.33
2023-03-01T06:50:09.772Z,37.22
2023-03-01T06:52:38.103Z,37.38
2023-03-01T06:55:06.740Z,37.47
2023-03-01T06:57:34.768Z,38.16
2023-03-01T07:00:02.516Z,38.27
2023-03-01T07:02:30.381Z,38.89
2023-03-01T07:04:59.559Z,39.26
2023-03-01T07:07:27.378Z,38.86
2023-03-01T07:09:55.341Z,39.28
2023-03-01T07:12:23.186Z,39.09
2023-03-01T07:14:50.958Z,38.90
2023-03-01T07:17:19.793Z,38.99
2023-03-01T07:19:47.527Z,38.53
2023-03-01T07:22:16.722Z,38.46
2023-03-01T07:24:45.017Z,38.66
2023-03-01T07:27:14.190Z,38.20
2023-03-01T07:29:41.958Z,38.26
2023-03-01T07:32:13.644Z,37.60
2023-03-01T07:34:41.508Z,37.99
2023-03-01T07:37:09.215Z,37.63
2023-03-01T07:39:38.460Z,37.28
2023-03-01T07:42:06.180Z,37.34
2023-03-01T07:44:35.381Z,36.91
2023-03-01T07:47:03.172Z,36.90
2023-03-01T07:49:30.967Z,36.62
2023-03-01T07:51:58.662Z,36.32
2023-03-01T07:54:27.238Z,36.26
2023-03-01T07:56:56.449Z,36.09
2023-03-01T07:59:24.848Z,35.99
2023-03-01T08:01:52.618Z,35.83
2023-03-01T08:04:20.521Z,35.66
2023-03-01T08:06:48.214Z,35.17
2023-03-01T08:09:16.075Z,34.76
2023-03-01T08:11:43.829Z,34.50
2023-03-01T08:14:13.044Z,34.18
2023-03-01T08:16:41.128Z,33.88
2023-03-01T08:19:10.086Z,34.00
2023-03-01T08:21:38.677Z,33.88
2023-03-01T08:24:08.040Z,33.71
2023-03-01T08:26:36.121Z,33.81
2023-03-01T08:29:05.241Z,33.80
2023-03-01T08:31:36.563Z,33.22
2023-03-01T08:34:07.334Z,33.34
2023-03-01T08:36:38.711Z,33.14
2023-03-01T08:39:07.708Z,33.61
2023-03-01T08:41:35.716Z,33.56
2023-03-01T08:44:03.750Z,33.52
2023-03-01T08:46:34.767Z,33.39
2023-03-01T08:49:05.305Z,33.55
2023-03-01T08:51:37.437Z,33.45
2023-03-01T08:54:05.526Z,33.86
2023-03-01T08:56:33.875Z,33.83
2023-03-01T08:59:02.109Z,33.69
2023-03-01T09:01:29.914Z,33.76
2023-03-01T09:03:59.212Z,33.81
2023-03-01T09:06:26.985Z,33.68
2023-03-01T09:08:55.830Z,34.07
2023-03-01T09:11:24.353Z,33.93
2023-03-01T09:13:52.682Z,33.93
2023-03-01T09:16:23.055Z,33.98
2023-03-01T09:18:52.792Z,34.09
2023-03-01T09:21:37.585Z,33.84
2023-03-01T09:24:07.884Z,33.61
2023-03-01T09:26:35.659Z,33.87
2023-03-01T09:29:03.453Z,33.77
2023-03-01T09:31:31.156Z,33.80
2023-03-01T09:33:58.930Z,33.68
2023-03-01T09:36:28.244Z,33.28
2023-03-01T09:38:56.087Z,33.36
2023-03-01T09:41:39.173Z,31.69
2023-03-01T09:44:15.491Z,32.89
2023-03-01T09:46:47.134Z,33.21
2023-03-01T09:49:20.614Z,32.81
2023-03-01T09:52:02.861Z,31.68
2023-03-01T09:54:30.806Z,33.09
2023-03-01T09:57:15.212Z,31.76
2023-03-01T09:59:58.093Z,32.15
2023-03-01T10:02:32.806Z,32.52
2023-03-01T10:05:15.271Z,31.57
2023-03-01T10:07:52.870Z,31.58
2023-03-01T10:10:29.854Z,32.13
2023-03-01T10:12:58.895Z,32.82
2023-03-01T10:15:37.179Z,32.08
2023-03-01T10:18:11.984Z,31.99
2023-03-01T10:20:47.964Z,31.79
2023-03-01T10:23:17.092Z,31.90
2023-03-01T10:25:58.222Z,31.37
2023-03-01T10:28:30.916Z,31.45
2023-03-01T10:31:01.112Z,31.30
2023-03-01T10:33:33.542Z,31.08
2023-03-01T10:36:01.406Z,31.54
2023-03-01T10:38:33.270Z,30.69
2023-03-01T10:41:06.381Z,31.61
2023-03-01T10:43:46.440Z,30.27
2023-03-01T10:46:28.784Z,30.32
2023-03-01T10:49:15.739Z,29.20
2023-03-01T10:51:45.819Z,30.99
2023-03-01T10:54:21.443Z,30.06
2023-03-01T10:56:51.692Z,31.13
2023-03-01T10:59:28.508Z,29.59
2023-03-01T11:02:26.188Z,30.23
2023-03-01T11:05:00.290Z,30.26
2023-03-01T11:07:28.648Z,31.04
2023-03-01T11:09:57.900Z,30.77
2023-03-01T11:12:26.460Z,31.00
2023-03-01T11:14:57.108Z,30.62
2023-03-01T11:17:29.984Z,30.22
2023-03-01T11:20:18.052Z,29.38
2023-03-01T11:22:50.011Z,30.15
2023-03-01T11:25:21.462Z,30.36
2023-03-01T11:27:49.430Z,30.72
2023-03-01T11:30:22.197Z,30.38
2023-03-01T11:32:57.281Z,30.26
2023-03-01T11:35:28.642Z,30.25
2023-03-01T11:38:18.737Z,29.69
2023-03-01T11:40:54.315Z,30.25
2023-03-01T11:43:29.443Z,29.97
2023-03-01T11:46:23.748Z,29.69
2023-03-01T11:48:59.881Z,29.91
2023-03-01T11:51:46.648Z,29.60
2023-03-01T11:54:30.180Z,29.59
2023-03-01T11:57:03.287Z,30.20
2023-03-01T11:59:50.114Z,29.89
2023-03-01T12:02:37.775Z,30.17
2023-03-01T12:05:26.618Z,30.22
2023-03-01T12:08:01.300Z,30.54
2023-03-01T12:10:30.641Z,30.78
2023-03-01T12:13:20.059Z,29.02
2023-03-01T12:16:11.960Z,29.71
2023-03-01T12:18:54.933Z,29.92
2023-03-01T12:21:33.097Z,30.01
2023-03-01T12:24:26.526Z,29.58
2023-03-01T12:27:05.862Z,29.65
2023-03-01T12:29:40.706Z,28.97
2023-03-01T12:32:23.972Z,27.86
2023-03-01T12:35:24.213Z,28.49
2023-03-01T12:37:58.677Z,28.91
2023-03-01T12:40:48.854Z,26.83
2023-03-01T12:43:30.352Z,28.38
2023-03-01T12:46:16.867Z,28.10
2023-03-01T12:48:52.898Z,29.00
2023-03-01T12:51:25.630Z,29.04
2023-03-01T12:53:57.075Z,29.04
2023-03-01T12:56:27.488Z,29.39
2023-03-01T12:59:04.608Z,28.99
2023-03-01T13:01:44.838Z,29.10
2023-03-01T13:04:39.419Z,29.08
2023-03-01T13:07:18.730Z,29.49
2023-03-01T13:09:56.396Z,29.10
2023-03-01T13:13:04.069Z,27.83
2023-03-01T13:15:36.594Z,29.25
2023-03-01T13:18:27.383Z,29.09
2023-03-01T13:20:58.351Z,29.10
2023-03-01T13:23:28.786Z,29.30
2023-03-01T13:26:15.087Z,28.73
2023-03-01T13:29:01.847Z,27.43
2023-03-01T13:32:04.965Z,26.76
2023-03-01T13:34:45.801Z,26.84
2023-03-01T13:37:22.972Z,27.85
2023-03-01T13:39:51.135Z,28.58
2023-03-01T13:43:04.195Z,26.87
2023-03-01T13:45:41.232Z,27.15
2023-03-01T13:48:17.220Z,27.86
2023-03-01T13:50:51.239Z,27.32
2023-03-01T13:53:21.821Z,27.93
2023-03-01T13:55:52.862Z,28.11
2023-03-01T13:58:26.325Z,27.65
2023-03-01T14:00:59.508Z,28.01
2023-03-01T14:03:28.076Z,28.00
2023-03-01T14:06:14.867Z,26.57
2023-03-01T14:08:45.083Z,27.97
2023-03-01T14:11:43.856Z,27.73
2023-03-01T14:14:42.433Z,27.60
2023-03-01T14:17:28.338Z,27.65
2023-03-01T14:19:58.258Z,28.08
2023-03-01T14:22:29.413Z,28.07
2023-03-01T14:25:00.273Z,28.14
2023-03-01T14:27:30.006Z,28.25
2023-03-01T14:30:03.459Z,28.35
2023-03-01T14:32:33.501Z,28.32
2023-03-01T14:35:02.634Z,28.41
2023-03-01T14:37:33.840Z,28.30
2023-03-01T14:40:03.561Z,28.48
2023-03-01T14:42:35.945Z,28.12
2023-03-01T14:45:05.820Z,27.86
2023-03-01T14:47:35.665Z,28.17
2023-03-01T14:50:06.826Z,28.07
2023-03-01T14:52:39.573Z,28.21
2023-03-01T14:55:17.260Z,28.09
2023-03-01T14:57:46.103Z,28.22
2023-03-01T15:00:20.812Z,27.82
2023-03-01T15:02:50.779Z,27.99
2023-03-01T15:05:29.888Z,27.72
2023-03-01T15:08:01.272Z,27.79
2023-03-01T15:10:31.046Z,28.11
2023-03-01T15:13:11.821Z,28.20
2023-03-01T15:15:42.713Z,28.25
2023-03-01T15:18:18.799Z,27.81
2023-03-01T15:20:47.220Z,28.10
2023-03-01T15:23:25.499Z,27.80
2023-03-01T15:25:58.214Z,28.08
2023-03-01T15:28:28.572Z,28.07
2023-03-01T15:31:03.000Z,27.57
2023-03-01T15:33:34.102Z,27.96
2023-03-01T15:36:03.717Z,27.96
2023-03-01T15:38:39.203Z,27.35
2023-03-01T15:41:23.794Z,28.10
2023-03-01T15:43:51.727Z,27.92
2023-03-01T15:46:24.553Z,27.27
2023-03-01T15:48:55.490Z,27.64
2023-03-01T15:51:31.110Z,27.79
2023-03-01T15:54:02.686Z,27.88
2023-03-01T15:56:30.875Z,27.89
2023-03-01T15:59:03.853Z,27.77
2023-03-01T16:01:35.111Z,28.10
2023-03-01T16:04:03.036Z,27.87
2023-03-01T16:06:31.277Z,27.80
2023-03-01T16:09:00.860Z,27.66
2023-03-01T16:11:29.009Z,27.71
2023-03-01T16:13:56.932Z,27.68
2023-03-01T16:16:25.406Z,27.74
2023-03-01T16:18:55.511Z,27.80
2023-03-01T16:21:25.816Z,27.69
2023-03-01T16:23:54.172Z,27.53
2023-03-01T16:26:23.379Z,27.66
2023-03-01T16:28:51.191Z,27.59
2023-03-01T16:31:21.320Z,27.87
2023-03-01T16:33:50.908Z,27.80
2023-03-01T16:36:20.664Z,27.80
2023-03-01T16:38:49.425Z,27.82
2023-03-01T16:41:20.868Z,27.89
2023-03-01T16:43:50.295Z,27.77
2023-03-01T16:46:19.904Z,27.68
2023-03-01T16:48:49.009Z,27.66
2023-03-01T16:51:17.218Z,27.70
2023-03-01T16:53:47.393Z,27.75
2023-03-01T16:56:16.438Z,27.77
2023-03-01T16:58:44.881Z,27.77
2023-03-01T17:01:18.259Z,27.49
2023-03-01T17:03:48.246Z,28.19
2023-03-01T17:06:19.447Z,27.82
2023-03-01T17:08:47.269Z,27.83
2023-03-01T17:11:17.041Z,27.77
2023-03-01T17:13:45.388Z,27.97
2023-03-01T17:16:18.011Z,27.91
2023-03-01T17:18:45.886Z,28.01
2023-03-01T17:21:14.444Z,28.05
2023-03-01T17:23:45.550Z,28.04
2023-03-01T17:26:14.171Z,27.96
2023-03-01T17:28:43.799Z,28.06
2023-03-01T17:31:12.000Z,28.11
2023-03-01T17:33:41.113Z,28.04
2023-03-01T17:36:09.101Z,28.26
2023-03-01T17:38:37.428Z,28.18
2023-03-01T17:41:06.194Z,28.20
2023-03-01T17:43:35.122Z,28.13
2023-03-01T17:46:03.369Z,28.22
2023-03-01T17:48:31.617Z,28.24
2023-03-01T17:51:00.990Z,28.18
2023-03-01T17:53:28.751Z,28.28
2023-03-01T17:56:01.742Z,28.35
2023-03-01T17:58:29.523Z,28.43
2023-03-01T18:00:57.305Z,28.55
2023-03-01T18:03:25.196Z,28.47
2023-03-01T18:05:53.037Z,28.34
2023-03-01T18:08:22.200Z,28.50
2023-03-01T18:10:50.225Z,28.55
2023-03-01T18:13:18.031Z,28.57
2023-03-01T18:15:45.761Z,28.58
2023-03-01T18:18:13.537Z,28.81
2023-03-01T18:20:41.317Z,28.59
2023-03-01T18:23:09.221Z,28.61
2023-03-01T18:25:41.508Z,28.66
2023-03-01T18:28:09.367Z,28.82
2023-03-01T18:30:37.306Z,28.82
2023-03-01T18:33:05.366Z,28.77
2023-03-01T18:35:37.014Z,28.86
2023-03-01T18:38:05.863Z,28.71
2023-03-01T18:40:33.703Z,28.69
2023-03-01T18:43:03.056Z,28.77
2023-03-01T18:45:32.558Z,28.84
2023-03-01T18:48:00.410Z,28.80
2023-03-01T18:50:28.246Z,28.80
2023-03-01T18:52:56.298Z,28.83
2023-03-01T18:55:24.082Z,28.78
2023-03-01T18:57:51.941Z,28.82
2023-03-01T19:00:22.875Z,28.93
2023-03-01T19:02:50.681Z,28.98
2023-03-01T19:05:18.793Z,28.80
2023-03-01T19:07:46.604Z,28.93
2023-03-01T19:10:14.346Z,28.95
2023-03-01T19:12:42.140Z,28.63
2023-03-01T19:15:10.471Z,28.79
2023-03-01T19:17:39.609Z,28.77
2023-03-01T19:20:09.017Z,28.96
2023-03-01T19:22:36.838Z,28.89
2023-03-01T19:25:04.984Z,28.80
2023-03-01T19:27:32.815Z,28.83
2023-03-01T19:30:00.572Z,28.96
2023-03-01T19:32:28.525Z,28.91
2023-03-01T19:34:57.745Z,29.16
2023-03-01T19:37:25.590Z,28.95
2023-03-01T19:39:53.391Z,28.90
2023-03-01T19:42:24.816Z,29.10
2023-03-01T19:44:52.590Z,28.92
2023-03-01T19:47:20.389Z,28.91
2023-03-01T19:49:48.250Z,29.05
2023-03-01T19:52:17.507Z,29.07
2023-03-01T19:54:46.463Z,28.99
2023-03-01T19:57:14.300Z,29.12
2023-03-01T19:59:42.248Z,29.05
2023-03-01T20:02:12.160Z,29.27
2023-03-01T20:04:39.984Z,29.17
2023-03-01T20:07:07.846Z,29.18
2023-03-01T20:09:37.223Z,29.18
2023-03-01T20:12:05.231Z,29.19
2023-03-01T20:14:33.110Z,29.23
2023-03-01T20:17:00.921Z,29.24
2023-03-01T20:19:29.655Z,29.33
2023-03-01T20:21:57.527Z,29.39
2023-03-01T20:24:25.381Z,29.37
2023-03-01T20:26:54.508Z,29.37
2023-03-01T20:29:22.541Z,29.52
2023-03-01T20:31:50.545Z,29.48
2023-03-01T20:34:18.564Z,29.77
2023-03-01T20:36:46.356Z,29.60
2023-03-01T20:39:14.227Z,29.57
2023-03-01T20:41:42.158Z,29.47
2023-03-01T20:44:11.602Z,29.80
2023-03-01T20:46:39.863Z,29.84
2023-03-01T20:49:08.208Z,29.83
2023-03-01T20:51:36.027Z,29.81
2023-03-01T20:54:04.173Z,29.99
2023-03-01T20:56:32.475Z,30.01
2023-03-01T20:59:04.515Z,30.01
2023-03-01T21:01:33.765Z,30.01
2023-03-01T21:04:01.627Z,30.08
2023-03-01T21:06:29.628Z,29.99
2023-03-01T21:09:10.876Z,30.03
2023-03-01T21:11:39.254Z,30.06
2023-03-01T21:14:07.039Z,30.21
2023-03-01T21:16:36.640Z,29.97
2023-03-01T21:19:05.459Z,29.77
2023-03-01T21:21:33.276Z,30.12
2023-03-01T21:24:01.055Z,30.02
2023-03-01T21:26:28.865Z,30.39
2023-03-01T21:28:58.509Z,29.97
2023-03-01T21:31:28.451Z,30.29
2023-03-01T21:33:59.926Z,30.25
2023-03-01T21:36:30.401Z,30.39
2023-03-01T21:39:01.232Z,30.54
2023-03-01T21:41:31.399Z,30.54
2023-03-01T21:44:01.130Z,30.46
2023-03-01T21:46:31.870Z,30.44
2023-03-01T21:49:02.499Z,30.43
2023-03-01T21:51:30.547Z,30.48
2023-03-01T21:54:00.983Z,30.47
2023-03-01T21:56:31.755Z,30.73
2023-03-01T21:58:59.946Z,30.77
2023-03-01T22:01:29.461Z,30.72
2023-03-01T22:03:58.538Z,30.80
2023-03-01T22:06:30.891Z,30.71
2023-03-01T22:09:01.033Z,30.74
2023-03-01T22:11:29.088Z,31.09
2023-03-01T22:13:57.397Z,30.80
2023-03-01T22:16:27.231Z,30.89
2023-03-01T22:18:55.286Z,30.85
2023-03-01T22:21:24.666Z,30.98
2023-03-01T22:23:54.480Z,31.04
2023-03-01T22:26:25.422Z,30.94
2023-03-01T22:28:53.912Z,31.13
2023-03-01T22:31:22.187Z,30.98
2023-03-01T22:33:50.061Z,31.17
2023-03-01T22:36:18.058Z,30.95
2023-03-01T22:38:46.274Z,31.09
2023-03-01T22:41:17.197Z,31.47
2023-03-01T22:43:44.958Z,31.03
2023-03-01T22:46:14.177Z,31.23
2023-03-01T22:48:42.205Z,31.13
2023-03-01T22:51:15.032Z,31.30
2023-03-01T22:53:42.864Z,31.39
2023-03-01T22:56:18.049Z,31.49
2023-03-01T22:58:46.361Z,31.41
2023-03-01T23:01:16.208Z,31.41
2023-03-01T23:03:45.365Z,31.12
2023-03-01T23:06:14.161Z,31.33
2023-03-01T23:08:42.182Z,31.44
2023-03-01T23:11:16.975Z,31.69
2023-03-01T23:13:45.052Z,31.50
2023-03-01T23:16:13.591Z,31.15
2023-03-01T23:18:41.870Z,31.43
2023-03-01T23:21:11.011Z,31.34
2023-03-01T23:23:39.122Z,31.49
2023-03-01T23:26:07.889Z,31.61
2023-03-01T23:28:40.682Z,31.57
2023-03-01T23:31:09.742Z,32.23
2023-03-01T23:33:38.760Z,31.62
2023-03-01T23:36:07.907Z,31.68
2023-03-01T23:38:35.696Z,31.70
2023-03-01T23:41:03.476Z,31.86
2023-03-01T23:43:33.061Z,31.76
2023-03-01T23:46:02.297Z,31.83
2023-03-01T23:48:30.072Z,31.75
2023-03-01T23:50:57.916Z,31.77
2023-03-01T23:53:25.955Z,31.79
2023-03-01T23:55:55.106Z,31.69
2023-03-01T23:58:28.269Z,31.68
